Time;durP1;ratioP1;P1;durP2;ratioP2;P2;SDS_P1;SDS_P2;PMS_P1;PMS_P2;Temp;Humidity;BMP_temperature;BMP_pressure;BME280_temperature;BME280_humidity;BME280_pressure;Samples;Min_cycle;Max_cycle;Signal;HPM_P1;HPM_P2
2022/04/16 00:00:20;;;;;;;10.30;9.70;;;;;;;10.51;56.33;92777.63;4993988;28;20188;-75
2022/04/16 00:02:46;;;;;;;11.40;9.67;;;;;;;10.56;55.88;92777.59;4989685;28;20214;-76
2022/04/16 00:05:12;;;;;;;9.73;9.23;;;;;;;10.41;55.52;92764.63;4988780;28;20300;-76
2022/04/16 00:07:38;;;;;;;9.70;9.10;;;;;;;10.38;56.57;92778.25;4989284;28;20187;-77
2022/04/16 00:10:04;;;;;;;10.07;9.57;;;;;;;10.34;56.12;92777.22;4987660;28;20294;-77
2022/04/16 00:12:30;;;;;;;10.20;9.70;;;;;;;10.27;56.80;92774.16;4989685;28;20204;-76
2022/04/16 00:14:55;;;;;;;10.17;9.53;;;;;;;10.35;56.16;92778.78;5003352;28;20236;-76
2022/04/16 00:17:21;;;;;;;9.77;9.17;;;;;;;10.26;55.48;92777.03;4989763;28;20180;-76
2022/04/16 00:19:47;;;;;;;9.07;8.47;;;;;;;10.05;56.04;92747.69;4989935;28;20259;-76
2022/04/16 00:22:12;;;;;;;9.30;8.87;;;;;;;10.20;56.13;92771.06;4991447;28;20232;-76
2022/04/16 00:24:44;;;;;;;9.47;8.67;;;;;;;10.22;55.54;92773.41;4990362;28;20239;-77
2022/04/16 00:27:10;;;;;;;9.10;8.60;;;;;;;10.18;56.01;92767.94;4990882;28;20184;-76
2022/04/16 00:29:36;;;;;;;8.30;7.90;;;;;;;9.94;56.07;92750.59;4990274;28;20243;-77
2022/04/16 00:32:05;;;;;;;8.43;8.03;;;;;;;9.95;56.64;92742.53;4990669;28;20200;-77
2022/04/16 00:34:31;;;;;;;9.10;8.67;;;;;;;10.09;56.51;92760.97;4990086;28;20259;-77
2022/04/16 00:36:57;;;;;;;10.13;9.60;;;;;;;9.91;57.19;92762.38;4990468;28;20192;-76
2022/04/16 00:39:22;;;;;;;8.43;7.93;;;;;;;9.84;57.33;92738.41;4989975;28;20717;-76
2022/04/16 00:41:47;;;;;;;9.77;9.20;;;;;;;10.09;57.08;92761.75;4989144;28;20192;-77
2022/04/16 00:44:13;;;;;;;9.33;8.83;;;;;;;9.84;57.61;92740.25;4989939;28;20318;-76
2022/04/16 00:46:39;;;;;;;8.90;8.50;;;;;;;9.84;58.58;92767.09;4989794;28;20242;-77
2022/04/16 00:49:05;;;;;;;9.87;9.37;;;;;;;9.98;58.26;92770.66;4990369;28;20232;-76
2022/04/16 00:51:31;;;;;;;8.57;8.27;;;;;;;9.96;57.94;92764.16;4990380;28;20188;-77
2022/04/16 00:53:57;;;;;;;9.37;8.77;;;;;;;9.93;57.94;92760.25;4990002;28;20307;-76
2022/04/16 00:56:23;;;;;;;9.77;9.23;;;;;;;10.11;57.67;92756.28;4990393;28;20188;-76
2022/04/16 00:58:48;;;;;;;10.17;9.60;;;;;;;10.12;57.07;92753.38;4989962;28;20266;-76
2022/04/16 01:01:14;;;;;;;9.60;9.10;;;;;;;10.05;57.63;92742.47;4990793;28;20207;-76
2022/04/16 01:03:45;;;;;;;9.03;8.53;;;;;;;10.05;57.55;92745.06;4990045;28;20220;-76
2022/04/16 01:06:15;;;;;;;10.10;9.50;;;;;;;9.92;56.84;92735.25;4989316;28;20226;-76
2022/04/16 01:08:47;;;;;;;9.43;9.03;;;;;;;9.91;57.69;92745.94;4989063;28;20227;-76
2022/04/16 01:11:13;;;;;;;8.90;8.50;;;;;;;9.92;56.70;92742.28;4990059;28;20238;-76
2022/04/16 01:13:39;;;;;;;10.10;9.10;;;;;;;9.88;57.13;92736.84;4989815;28;20234;-76
2022/04/16 01:16:05;;;;;;;9.73;9.07;;;;;;;9.76;56.74;92702.47;4990122;28;20188;-76
2022/04/16 01:18:32;;;;;;;10.00;9.30;;;;;;;9.74;56.25;92709.81;4989795;28;20216;-76
2022/04/16 01:20:57;;;;;;;9.20;8.70;;;;;;;9.76;56.84;92731.16;4989902;28;20195;-76
2022/04/16 01:23:23;;;;;;;9.47;8.90;;;;;;;9.70;57.28;92724.41;4990215;28;20315;-76
2022/04/16 01:25:48;;;;;;;9.73;9.03;;;;;;;9.80;56.80;92729.59;4989714;28;20306;-76
2022/04/16 01:28:14;;;;;;;8.73;8.23;;;;;;;9.82;55.43;92738.69;4989393;28;20287;-76
2022/04/16 01:30:39;;;;;;;9.57;8.97;;;;;;;9.67;54.68;92744.00;4990241;28;20191;-76
2022/04/16 01:33:05;;;;;;;7.90;7.40;;;;;;;9.81;52.39;92741.56;4989919;28;20207;-76
2022/04/16 01:35:31;;;;;;;8.77;8.37;;;;;;;9.85;52.92;92753.03;4989897;28;20184;-76
2022/04/16 01:37:57;;;;;;;8.57;8.17;;;;;;;9.89;52.94;92753.25;4989533;28;20319;-76
2022/04/16 01:40:25;;;;;;;9.00;8.60;;;;;;;9.85;52.42;92758.25;4989100;28;20192;-76
2022/04/16 01:42:52;;;;;;;8.83;8.43;;;;;;;9.93;53.43;92757.66;4990090;28;20188;-76
2022/04/16 01:45:18;;;;;;;9.40;8.90;;;;;;;9.68;55.79;92742.94;4989823;28;20218;-76
2022/04/16 01:47:44;;;;;;;8.83;8.37;;;;;;;9.65;56.90;92737.47;4990385;28;20192;-76
2022/04/16 01:50:11;;;;;;;8.90;8.50;;;;;;;9.38;57.31;92724.09;4989641;28;20247;-76
2022/04/16 01:52:38;;;;;;;9.07;8.53;;;;;;;9.50;57.63;92750.59;4989208;28;20185;-76
2022/04/16 01:55:04;;;;;;;9.40;8.93;;;;;;;9.27;57.63;92733.78;4989348;28;20220;-76
2022/04/16 01:57:30;;;;;;;10.03;9.33;;;;;;;9.17;58.20;92714.78;4989422;28;20218;-76
2022/04/16 01:59:56;;;;;;;9.50;9.10;;;;;;;9.33;58.60;92748.34;4989289;28;20232;-76
2022/04/16 02:02:21;;;;;;;10.53;9.83;;;;;;;9.28;58.34;92732.72;4989762;28;20224;-76
2022/04/16 02:04:47;;;;;;;10.47;9.67;;;;;;;9.24;58.00;92738.72;4988109;28;20221;-76
2022/04/16 02:07:13;;;;;;;9.60;9.00;;;;;;;9.22;58.33;92743.41;4992664;28;20188;-76
2022/04/16 02:09:39;;;;;;;10.33;9.83;;;;;;;9.09;58.79;92752.56;4992557;28;20216;-76
2022/04/16 02:12:06;;;;;;;9.97;9.37;;;;;;;9.10;57.76;92735.13;4993321;28;20251;-76
2022/04/16 02:14:32;;;;;;;9.40;9.00;;;;;;;9.17;57.68;92746.03;4993144;28;20240;-76
2022/04/16 02:16:58;;;;;;;9.40;8.90;;;;;;;9.03;57.97;92745.03;4993422;28;20200;-76
2022/04/16 02:19:24;;;;;;;8.90;8.50;;;;;;;8.94;58.57;92738.81;4992563;28;20232;-76
2022/04/16 02:21:49;;;;;;;9.00;8.60;;;;;;;8.75;58.42;92717.00;4992567;28;20224;-76
2022/04/16 02:24:17;;;;;;;9.00;8.50;;;;;;;8.63;58.67;92693.88;4993015;28;20262;-76
2022/04/16 02:26:43;;;;;;;9.67;8.97;;;;;;;8.92;56.96;92733.13;4993266;28;20221;-76
2022/04/16 02:29:10;;;;;;;8.63;8.23;;;;;;;8.90;57.46;92728.16;4992361;28;20282;-76
2022/04/16 02:31:39;;;;;;;9.93;9.43;;;;;;;8.97;56.97;92738.28;4992106;28;20184;-75
2022/04/16 02:34:07;;;;;;;9.90;9.30;;;;;;;8.86;57.39;92741.97;4992552;28;20295;-76
2022/04/16 02:36:36;;;;;;;9.97;9.47;;;;;;;8.82;57.17;92741.72;4992257;28;20184;-76
2022/04/16 02:39:02;;;;;;;9.97;9.47;;;;;;;8.89;56.98;92734.41;4992258;28;20232;-76
2022/04/16 02:41:28;;;;;;;10.63;10.03;;;;;;;8.96;56.32;92736.75;4992240;28;20204;-76
2022/04/16 02:43:58;;;;;;;9.43;8.83;;;;;;;8.64;56.84;92715.50;4992321;28;20236;-76
2022/04/16 02:49:08;;;;;;;9.93;9.40;;;;;;;8.80;57.32;92714.38;4991993;28;20231;-76
2022/04/16 02:51:34;;;;;;;8.97;8.47;;;;;;;8.86;57.39;92754.97;4992301;28;20188;-76
2022/04/16 02:54:00;;;;;;;9.20;8.73;;;;;;;8.71;58.30;92742.78;4992779;28;20240;-76
2022/04/16 02:56:25;;;;;;;9.33;8.73;;;;;;;8.81;58.32;92752.41;4992164;28;20188;-76
2022/04/16 02:58:51;;;;;;;9.93;9.33;;;;;;;8.63;58.33;92712.09;4991988;28;20243;-76
2022/04/16 03:01:17;;;;;;;9.97;9.43;;;;;;;8.58;58.23;92717.31;5007524;28;20276;-76
2022/04/16 03:03:42;;;;;;;9.60;9.20;;;;;;;8.79;57.95;92752.69;4992300;28;20239;-76
2022/04/16 03:06:08;;;;;;;10.87;10.27;;;;;;;8.73;58.37;92739.94;4992327;28;20230;-76
2022/04/16 03:08:34;;;;;;;9.50;8.90;;;;;;;8.92;58.29;92748.75;4991710;28;20871;-76
2022/04/16 03:11:00;;;;;;;10.00;9.20;;;;;;;8.90;58.45;92745.63;4990724;28;20211;-76
2022/04/16 03:13:26;;;;;;;9.60;9.10;;;;;;;8.73;58.26;92719.88;4991759;28;20235;-76
2022/04/16 03:18:35;;;;;;;9.73;8.93;;;;;;;8.84;57.50;92744.06;4990651;28;20227;-76
2022/04/16 03:21:01;;;;;;;10.13;9.63;;;;;;;8.83;57.96;92752.91;4991922;28;20196;-76
2022/04/16 03:23:27;;;;;;;9.33;8.83;;;;;;;8.63;58.05;92721.72;4991796;28;20232;-76
2022/04/16 03:25:58;;;;;;;9.77;9.27;;;;;;;8.87;58.26;92751.34;4992368;28;21246;-76
2022/04/16 03:28:24;;;;;;;10.83;10.23;;;;;;;8.82;58.54;92740.94;4990712;28;20228;-76
2022/04/16 03:30:49;;;;;;;10.50;9.87;;;;;;;8.98;58.17;92758.09;4992743;28;20185;-75
2022/04/16 03:33:15;;;;;;;9.80;9.30;;;;;;;8.69;58.79;92734.47;4990959;28;20227;-76
2022/04/16 03:35:40;;;;;;;9.47;9.07;;;;;;;8.93;58.40;92750.28;4991850;28;20183;-76
2022/04/16 03:38:06;;;;;;;10.73;10.13;;;;;;;8.90;58.79;92766.44;4991054;28;20192;-76
2022/04/16 03:40:31;;;;;;;10.30;9.53;;;;;;;8.80;58.87;92756.03;4991560;28;20215;-79
2022/04/16 03:43:01;;;;;;;9.87;9.17;;;;;;;8.77;59.10;92751.34;4990913;28;20228;-77
2022/04/16 03:45:36;;;;;;;9.70;9.30;;;;;;;8.93;59.49;92769.31;4991638;28;20219;-78
2022/04/16 03:48:05;;;;;;;8.90;8.50;;;;;;;8.83;59.83;92765.91;4991381;28;20207;-76
2022/04/16 03:50:32;;;;;;;9.47;9.07;;;;;;;9.02;59.09;92780.72;4990973;28;20184;-75
2022/04/16 03:52:57;;;;;;;9.33;8.83;;;;;;;9.04;58.97;92788.28;4991555;28;20219;-75
2022/04/16 04:00:56;;;;;;;9.93;9.23;;;;;;;9.14;58.48;92791.63;4991397;28;20223;-75
2022/04/16 04:03:22;;;;;;;9.83;9.43;;;;;;;9.11;57.94;92770.53;4990537;28;20242;-74
2022/04/16 04:05:49;;;;;;;11.10;10.50;;;;;;;9.41;57.61;92802.50;4991042;28;20211;-74
2022/04/16 04:08:20;;;;;;;9.50;8.90;;;;;;;9.56;57.59;92799.81;4990356;28;20295;-73
2022/04/16 04:10:46;;;;;;;9.97;9.47;;;;;;;9.61;57.00;92788.59;4989436;28;20294;-77
2022/04/16 04:13:13;;;;;;;9.97;9.27;;;;;;;9.86;57.14;92806.72;4990577;28;20298;-77
2022/04/16 04:15:39;;;;;;;9.80;9.20;;;;;;;10.02;56.27;92800.38;4991126;28;20256;-73
2022/04/16 04:18:07;;;;;;;9.07;8.47;;;;;;;10.14;56.37;92800.06;4990697;28;20897;-72
2022/04/16 04:20:35;;;;;;;9.30;8.90;;;;;;;10.40;55.48;92807.47;4990936;28;20188;-75
2022/04/16 04:23:01;;;;;;;9.63;9.03;;;;;;;10.48;55.16;92785.22;4987386;28;20243;-80
2022/04/16 04:25:26;;;;;;;9.20;8.70;;;;;;;10.75;55.20;92794.13;4988431;28;20216;-77
2022/04/16 04:27:52;;;;;;;9.47;8.90;;;;;;;10.71;54.62;92767.00;4989754;28;20251;-77
2022/04/16 04:30:18;;;;;;;9.67;9.10;;;;;;;10.98;54.51;92801.25;4990258;28;20256;-79
2022/04/16 04:32:44;;;;;;;10.07;9.47;;;;;;;11.03;55.06;92795.19;4990145;28;20665;-77
2022/04/16 04:35:10;;;;;;;8.77;8.27;;;;;;;11.04;55.57;92792.28;4990126;28;20247;-78
2022/04/16 04:37:35;;;;;;;11.40;10.00;;;;;;;11.09;55.79;92789.63;4987659;28;20257;-77
2022/04/16 04:40:01;;;;;;;9.60;8.90;;;;;;;11.22;55.49;92802.03;4989409;28;20295;-82
2022/04/16 04:42:29;;;;;;;10.20;9.57;;;;;;;11.33;55.46;92800.88;4990295;28;20212;-79
2022/04/16 04:44:55;;;;;;;9.23;8.73;;;;;;;11.41;54.98;92814.41;4989378;28;20258;-81
2022/04/16 04:47:31;;;;;;;10.23;9.53;;;;;;;11.45;53.73;92776.19;4990100;28;20199;-78
2022/04/16 04:49:56;;;;;;;10.23;9.53;;;;;;;11.85;52.96;92809.72;4990004;28;20215;-80
2022/04/16 04:52:26;;;;;;;10.13;9.43;;;;;;;12.02;51.95;92823.09;4990237;28;20229;-82
2022/04/16 04:55:02;;;;;;;11.37;10.67;;;;;;;12.06;52.96;92819.63;4989863;28;20229;-81
2022/04/16 04:57:27;;;;;;;11.23;10.53;;;;;;;12.16;53.18;92822.13;4987323;28;20960;-83
2022/04/16 04:59:54;;;;;;;10.30;9.63;;;;;;;12.36;51.11;92802.72;4982749;28;20540;-82
2022/04/16 05:02:19;;;;;;;10.30;9.70;;;;;;;12.32;50.29;92822.69;4970457;28;21034;-79
2022/04/16 05:04:45;;;;;;;11.30;10.33;;;;;;;12.24;52.02;92823.34;4985334;28;20316;-78
2022/04/16 05:07:10;;;;;;;10.73;10.03;;;;;;;12.22;50.18;92801.88;4989215;28;20200;-77
2022/04/16 05:09:37;;;;;;;11.30;10.37;;;;;;;12.40;50.56;92822.84;4987701;28;20225;-77
2022/04/16 05:12:03;;;;;;;11.80;11.00;;;;;;;12.33;51.31;92819.00;4988563;28;20203;-77
2022/04/16 05:14:29;;;;;;;10.73;10.13;;;;;;;12.44;50.50;92823.03;4987909;28;20230;-77
2022/04/16 05:16:55;;;;;;;11.47;10.40;;;;;;;12.59;50.70;92817.59;4989988;28;20204;-78
2022/04/16 05:19:20;;;;;;;11.80;10.67;;;;;;;12.78;49.60;92813.09;4989033;28;20236;-77
2022/04/16 05:21:46;;;;;;;10.10;9.60;;;;;;;12.46;51.40;92813.06;4990363;28;21081;-77
2022/04/16 05:24:11;;;;;;;10.50;9.80;;;;;;;12.75;49.90;92816.28;4989520;28;20883;-77
2022/04/16 05:26:40;;;;;;;10.80;9.80;;;;;;;12.95;48.61;92805.47;4988939;28;20226;-77
2022/04/16 05:29:06;;;;;;;10.17;9.47;;;;;;;13.14;48.91;92803.59;4988036;28;20250;-77
2022/04/16 05:31:32;;;;;;;11.10;10.40;;;;;;;13.29;48.32;92794.72;4988908;28;20313;-77
2022/04/16 05:36:43;;;;;;;9.97;9.37;;;;;;;13.33;47.57;92796.47;4986223;28;20210;-80
2022/04/16 05:39:09;;;;;;;11.27;10.27;;;;;;;13.35;48.68;92815.31;4987000;28;20239;-80
2022/04/16 05:41:35;;;;;;;10.53;9.90;;;;;;;13.40;48.51;92798.69;4990068;28;20215;-79
2022/04/16 05:44:01;;;;;;;11.23;10.53;;;;;;;14.08;47.07;92818.59;4991359;28;20219;-80
2022/04/16 05:46:26;;;;;;;11.07;10.17;;;;;;;14.12;47.19;92816.16;4993328;28;20246;-81
2022/04/16 05:48:52;;;;;;;10.83;10.13;;;;;;;14.44;46.50;92816.78;4992585;28;20352;-79
2022/04/16 05:51:18;;;;;;;12.03;11.03;;;;;;;14.23;45.80;92812.22;4992127;28;20231;-79
2022/04/16 05:53:45;;;;;;;11.17;10.13;;;;;;;14.23;45.60;92820.13;4992765;28;20243;-79
2022/04/16 05:56:11;;;;;;;10.50;9.90;;;;;;;15.45;43.42;92809.13;4992519;28;20188;-80
2022/04/16 05:58:37;;;;;;;10.63;9.83;;;;;;;16.81;39.64;92809.44;4991653;28;20220;-80
2022/04/16 06:01:03;;;;;;;10.90;10.20;;;;;;;17.69;37.78;92820.31;4992987;28;20187;-82
2022/04/16 06:03:29;;;;;;;10.80;9.80;;;;;;;18.67;34.58;92829.47;4992193;28;20236;-77
2022/04/16 06:05:55;;;;;;;10.03;9.13;;;;;;;19.08;33.95;92816.97;4992223;28;20219;-76
2022/04/16 06:08:20;;;;;;;9.23;8.50;;;;;;;18.39;34.82;92817.81;4991444;28;20231;-77
2022/04/16 06:10:46;;;;;;;11.00;10.13;;;;;;;16.32;38.63;92811.72;4993766;28;20201;-77
2022/04/16 06:13:12;;;;;;;12.03;9.00;;;;;;;15.52;41.05;92809.47;4992755;28;20231;-78
2022/04/16 06:15:43;;;;;;;10.20;9.20;;;;;;;16.03;39.66;92810.41;4993537;28;20180;-78
2022/04/16 06:18:10;;;;;;;11.10;9.87;;;;;;;15.64;39.81;92802.53;4992261;28;20248;-78
2022/04/16 06:20:36;;;;;;;9.67;8.77;;;;;;;15.95;39.50;92824.34;4992366;28;20188;-77
2022/04/16 06:23:02;;;;;;;13.63;9.03;;;;;;;15.47;40.26;92813.00;4991706;28;20220;-77
2022/04/16 06:25:28;;;;;;;10.93;10.03;;;;;;;15.47;39.66;92791.19;4993154;28;20283;-77
2022/04/16 06:27:54;;;;;;;9.90;9.27;;;;;;;16.05;38.12;92820.66;4992181;28;20183;-77
2022/04/16 06:30:19;;;;;;;9.83;9.27;;;;;;;15.33;39.12;92769.44;4993349;28;20202;-77
2022/04/16 06:32:45;;;;;;;10.10;9.10;;;;;;;15.62;38.02;92796.84;4993795;28;20188;-78
2022/04/16 06:35:12;;;;;;;10.80;10.03;;;;;;;16.05;37.82;92804.84;4991924;28;20220;-77
2022/04/16 06:37:38;;;;;;;10.07;9.40;;;;;;;16.19;35.27;92820.53;4992082;28;20212;-78
2022/04/16 06:40:06;;;;;;;9.03;8.53;;;;;;;15.77;35.52;92819.31;4991380;28;20893;-77
2022/04/16 06:42:31;;;;;;;10.27;9.60;;;;;;;15.64;37.10;92801.78;4989927;28;20180;-77
2022/04/16 06:44:57;;;;;;;9.20;8.60;;;;;;;16.44;34.92;92796.88;4991429;28;20235;-76
2022/04/16 06:47:23;;;;;;;9.60;9.00;;;;;;;15.91;35.47;92785.75;4991819;28;20180;-77
2022/04/16 06:49:49;;;;;;;10.27;9.57;;;;;;;16.15;36.16;92807.19;4991702;28;20228;-75
2022/04/16 06:52:17;;;;;;;10.00;9.23;;;;;;;16.05;35.50;92803.00;4991009;28;20196;-77
2022/04/16 06:54:43;;;;;;;8.43;7.93;;;;;;;16.23;35.14;92803.81;4992075;28;20227;-77
2022/04/16 06:57:08;;;;;;;9.40;8.90;;;;;;;15.41;35.65;92787.91;4992544;28;20192;-77
2022/04/16 06:59:34;;;;;;;9.13;8.63;;;;;;;16.11;35.32;92800.97;4976010;28;20232;-76
2022/04/16 07:01:59;;;;;;;10.70;9.90;;;;;;;16.01;36.62;92796.81;4971801;28;20192;-76
2022/04/16 07:04:24;;;;;;;9.73;9.13;;;;;;;15.82;35.59;92779.69;4969925;28;20287;-77
2022/04/16 07:06:50;;;;;;;9.27;8.53;;;;;;;15.53;36.20;92789.97;4971956;28;20244;-77
2022/04/16 07:09:15;;;;;;;9.13;8.53;;;;;;;15.55;36.19;92793.84;4971036;28;20221;-76
2022/04/16 07:11:41;;;;;;;10.00;9.30;;;;;;;15.87;36.83;92798.78;4972107;28;20193;-76
2022/04/16 07:14:06;;;;;;;9.70;9.03;;;;;;;16.12;36.55;92781.47;4971528;28;20212;-76
2022/04/16 07:16:32;;;;;;;11.53;10.53;;;;;;;15.81;36.62;92799.22;4972178;28;20197;-77
2022/04/16 07:18:57;;;;;;;12.27;11.20;;;;;;;15.33;37.79;92807.03;4980642;28;20223;-78
2022/04/16 07:21:22;;;;;;;11.30;10.20;;;;;;;15.51;36.87;92777.13;4987566;28;20263;-80
2022/04/16 07:23:48;;;;;;;11.80;10.60;;;;;;;16.15;36.62;92801.94;4991687;28;20232;-76
2022/04/16 07:26:13;;;;;;;11.30;10.23;;;;;;;15.88;37.30;92797.69;4990934;28;20212;-77
2022/04/16 07:28:39;;;;;;;13.03;10.63;;;;;;;16.26;36.85;92786.59;4983720;28;20256;-76
2022/04/16 07:31:04;;;;;;;10.40;9.57;;;;;;;16.09;36.63;92776.81;4971029;28;20180;-76
2022/04/16 07:33:30;;;;;;;10.20;9.50;;;;;;;16.45;37.01;92782.59;4976117;28;20231;-76
2022/04/16 07:35:56;;;;;;;8.83;8.13;;;;;;;16.82;36.38;92784.63;4991722;28;20184;-76
2022/04/16 07:38:22;;;;;;;10.77;9.93;;;;;;;16.31;36.68;92794.38;4990612;28;20236;-82
2022/04/16 07:40:47;;;;;;;10.10;9.37;;;;;;;16.34;36.25;92786.63;4992414;28;20204;-82
2022/04/16 07:43:15;;;;;;;10.20;9.50;;;;;;;16.72;36.44;92768.34;4990549;28;20369;-83
2022/04/16 07:45:41;;;;;;;10.53;9.17;;;;;;;16.81;36.20;92782.31;4990239;28;20212;-76
2022/04/16 07:48:07;;;;;;;10.17;9.53;;;;;;;16.77;37.10;92786.66;4988541;28;20267;-76
2022/04/16 07:50:33;;;;;;;9.77;9.10;;;;;;;16.75;36.74;92778.25;4990712;28;20202;-77
2022/04/16 07:52:59;;;;;;;10.37;9.43;;;;;;;16.39;37.14;92780.44;4991318;28;20251;-78
2022/04/16 07:55:28;;;;;;;10.03;9.33;;;;;;;16.57;36.83;92732.69;4987373;28;20200;-82
2022/04/16 07:57:54;;;;;;;10.37;9.67;;;;;;;16.37;37.57;92758.88;4990124;28;20211;-76
2022/04/16 08:00:20;;;;;;;9.63;9.03;;;;;;;16.51;37.75;92777.97;4990487;28;20193;-78
2022/04/16 08:02:45;;;;;;;10.40;9.60;;;;;;;16.41;37.38;92778.25;4986462;28;20196;-79
2022/04/16 08:05:11;;;;;;;10.30;9.60;;;;;;;16.43;37.74;92782.13;4987790;28;20240;-79
2022/04/16 08:07:37;;;;;;;10.57;9.67;;;;;;;16.50;37.89;92758.75;4990662;28;20265;-79
2022/04/16 08:10:03;;;;;;;9.83;9.13;;;;;;;17.08;36.06;92763.47;4990790;28;20292;-81
2022/04/16 08:12:29;;;;;;;10.53;9.60;;;;;;;17.37;36.44;92768.81;4990494;28;20196;-79
2022/04/16 08:14:54;;;;;;;11.57;10.47;;;;;;;17.41;34.67;92770.53;4989850;28;20338;-81
2022/04/16 08:17:20;;;;;;;10.20;9.33;;;;;;;16.71;35.93;92767.59;4990350;28;20184;-76
2022/04/16 08:19:46;;;;;;;11.77;10.77;;;;;;;17.08;36.24;92766.91;4989437;28;20216;-77
2022/04/16 08:22:17;;;;;;;9.60;8.90;;;;;;;17.12;35.95;92746.69;4990994;28;20266;-80
2022/04/16 08:27:31;;;;;;;10.23;9.47;;;;;;;17.26;36.21;92757.09;4991086;28;20206;-76
2022/04/16 08:29:56;;;;;;;9.67;8.80;;;;;;;16.76;36.78;92748.94;4990607;28;20216;-77
2022/04/16 08:32:22;;;;;;;10.23;9.10;;;;;;;16.71;37.15;92751.75;4989939;28;20192;-78
2022/04/16 08:34:47;;;;;;;10.43;9.67;;;;;;;16.73;36.89;92748.81;4988414;28;20250;-78
2022/04/16 08:37:13;;;;;;;11.27;10.47;;;;;;;16.90;36.58;92754.81;4989985;28;20188;-76
2022/04/16 08:39:56;;;;;;;8.97;8.40;;;;;;;16.90;36.90;92757.44;4988512;28;20223;-76
2022/04/16 08:42:22;;;;;;;9.27;8.67;;;;;;;16.59;36.57;92754.22;4988763;28;20267;-76
2022/04/16 08:44:48;;;;;;;10.20;9.37;;;;;;;16.60;37.14;92750.53;4988876;28;20234;-76
2022/04/16 08:47:14;;;;;;;12.17;9.87;;;;;;;16.86;36.34;92747.84;4989596;28;20251;-76
2022/04/16 08:49:41;;;;;;;10.20;9.40;;;;;;;17.13;37.23;92737.72;4988626;28;20221;-76
2022/04/16 08:52:08;;;;;;;10.37;9.47;;;;;;;17.39;36.67;92742.91;4987794;28;20256;-76
2022/04/16 08:54:36;;;;;;;10.33;9.20;;;;;;;17.76;36.86;92744.03;4989267;28;20223;-76
2022/04/16 08:57:02;;;;;;;10.03;9.33;;;;;;;17.80;36.98;92748.34;4989612;28;20215;-77
2022/04/16 08:59:27;;;;;;;9.67;8.97;;;;;;;17.54;36.32;92742.41;4988612;28;20280;-77
2022/04/16 09:01:53;;;;;;;9.60;8.67;;;;;;;17.85;35.56;92736.81;4989604;28;20702;-76
2022/04/16 09:04:23;;;;;;;9.90;9.00;;;;;;;17.45;37.62;92741.66;4990171;28;20340;-76
2022/04/16 09:07:00;;;;;;;9.70;9.10;;;;;;;17.26;37.07;92736.72;4989466;28;20212;-77
2022/04/16 09:09:26;;;;;;;8.80;8.30;;;;;;;17.72;35.40;92738.59;4989728;28;20242;-76
2022/04/16 09:11:52;;;;;;;10.20;9.50;;;;;;;17.65;35.65;92732.28;4989620;28;20180;-77
2022/04/16 09:14:17;;;;;;;9.20;8.50;;;;;;;18.02;34.96;92739.38;4990011;28;20295;-78
2022/04/16 09:16:43;;;;;;;10.70;9.97;;;;;;;18.16;34.10;92737.25;4988825;28;20196;-79
2022/04/16 09:19:16;;;;;;;9.10;8.53;;;;;;;17.92;33.05;92732.59;4988681;28;20243;-79
2022/04/16 09:21:43;;;;;;;9.53;9.03;;;;;;;18.08;31.97;92730.94;4990898;28;20259;-79
2022/04/16 09:24:08;;;;;;;10.37;9.57;;;;;;;17.98;33.71;92722.63;4976763;28;20224;-78
2022/04/16 09:26:35;;;;;;;10.87;10.13;;;;;;;18.35;32.03;92724.38;4970206;28;20213;-77
2022/04/16 09:29:12;;;;;;;9.50;9.00;;;;;;;17.75;34.12;92716.84;4979190;28;20228;-78
2022/04/16 09:31:45;;;;;;;10.77;10.00;;;;;;;18.00;35.38;92717.75;4987043;28;20185;-77
2022/04/16 09:34:18;;;;;;;10.20;9.00;;;;;;;18.49;32.98;92719.63;4988175;28;20251;-78
2022/04/16 09:36:44;;;;;;;9.23;8.37;;;;;;;18.68;32.65;92711.97;4989199;28;20214;-77
2022/04/16 09:39:10;;;;;;;9.93;9.33;;;;;;;18.28;32.81;92714.31;4988846;28;20258;-77
2022/04/16 09:41:41;;;;;;;9.33;8.63;;;;;;;18.71;32.68;92716.63;4989277;28;20186;-78
2022/04/16 09:44:25;;;;;;;13.43;10.23;;;;;;;18.68;32.87;92717.25;4989092;28;20241;-77
2022/04/16 09:46:52;;;;;;;8.80;8.30;;;;;;;18.79;31.37;92713.13;4988763;28;20226;-77
2022/04/16 09:49:18;;;;;;;9.77;9.07;;;;;;;18.98;30.88;92705.47;4988006;28;20224;-82
2022/04/16 09:51:48;;;;;;;11.02;9.93;;;;;;;18.69;32.57;92718.84;4988510;28;20445;-81
2022/04/16 09:54:15;;;;;;;10.23;9.53;;;;;;;18.69;32.33;92695.78;4988979;28;20246;-84
2022/04/16 09:56:46;;;;;;;10.80;10.00;;;;;;;18.73;30.93;92624.50;4987650;28;20714;-85
2022/04/16 09:59:13;;;;;;;8.57;8.07;;;;;;;18.93;31.90;92709.09;4989047;28;20242;-84
2022/04/16 10:01:49;;;;;;;9.27;8.53;;;;;;;18.99;33.07;92707.00;4987917;28;20177;-84
2022/04/16 10:04:16;;;;;;;9.93;9.03;;;;;;;19.51;32.17;92712.53;4988491;28;20232;-83
2022/04/16 10:06:43;;;;;;;9.73;8.77;;;;;;;18.87;31.98;92699.81;4988984;28;20240;-85
2022/04/16 10:09:17;;;;;;;9.23;8.60;;;;;;;18.46;32.64;92709.69;4988189;28;20234;-83
2022/04/16 10:14:54;;;;;;;10.70;9.67;;;;;;;18.24;33.26;92702.81;4989105;28;20252;-76
2022/04/16 10:17:28;;;;;;;10.03;9.10;;;;;;;19.42;30.73;92696.75;4989803;28;20229;-75
2022/04/16 10:19:55;;;;;;;8.53;8.03;;;;;;;19.29;31.39;92699.69;4987694;28;20231;-78
2022/04/16 10:22:24;;;;;;;10.23;9.33;;;;;;;19.25;32.20;92691.63;4989445;28;20293;-79
2022/04/16 10:24:53;;;;;;;10.07;9.37;;;;;;;19.75;30.42;92697.41;4988407;28;20234;-78
2022/04/16 10:27:27;;;;;;;11.07;10.27;;;;;;;19.69;30.89;92698.72;4989402;28;20185;-77
2022/04/16 10:29:58;;;;;;;8.77;8.17;;;;;;;19.75;30.69;92678.09;4992556;28;20233;-78
2022/04/16 10:32:28;;;;;;;10.10;9.40;;;;;;;20.50;29.67;92683.38;4991810;28;20210;-78
2022/04/16 10:35:11;;;;;;;9.67;9.07;;;;;;;20.45;29.37;92682.84;4991431;28;20230;-78
2022/04/16 10:37:41;;;;;;;9.03;8.33;;;;;;;20.41;30.30;92685.41;4991651;28;20221;-77
2022/04/16 10:40:19;;;;;;;9.57;8.87;;;;;;;20.85;29.55;92683.56;4991914;28;20228;-76
2022/04/16 10:43:01;;;;;;;10.60;9.83;;;;;;;20.09;29.90;92688.22;4991197;28;20324;-78
2022/04/16 10:45:27;;;;;;;10.07;9.30;;;;;;;19.99;29.84;92670.88;4991668;28;20245;-79
2022/04/16 10:47:54;;;;;;;10.40;9.50;;;;;;;20.08;32.12;92663.56;4990507;28;20228;-78
2022/04/16 10:50:21;;;;;;;10.40;9.50;;;;;;;20.71;32.57;92669.94;4991771;28;20191;-78
2022/04/16 10:52:55;;;;;;;9.50;8.73;;;;;;;20.72;30.47;92671.47;4990618;28;20194;-79
2022/04/16 10:55:24;;;;;;;10.43;9.53;;;;;;;20.68;29.36;92650.13;4992518;28;20199;-79
2022/04/16 10:58:03;;;;;;;9.68;8.88;;;;;;;20.27;30.49;92663.00;4991847;28;20177;-78
2022/04/16 11:00:36;;;;;;;11.13;9.65;;;;;;;20.16;31.79;92660.06;4992178;28;20206;-78
2022/04/16 11:03:28;;;;;;;10.00;9.20;;;;;;;20.47;31.02;92665.47;4992534;28;20207;-78
2022/04/16 11:06:04;;;;;;;10.37;9.60;;;;;;;20.42;30.40;92671.03;4988462;28;20223;-78
2022/04/16 11:08:33;;;;;;;9.18;8.52;;;;;;;20.66;30.44;92657.69;4991118;28;20237;-78
2022/04/16 11:10:59;;;;;;;9.60;8.90;;;;;;;20.91;30.19;92650.34;4992899;28;20195;-78
2022/04/16 11:13:30;;;;;;;8.77;8.18;;;;;;;21.17;28.73;92663.94;4991784;28;20235;-78
2022/04/16 11:15:57;;;;;;;9.53;8.73;;;;;;;20.75;29.67;92646.16;4990231;28;20199;-78
2022/04/16 11:18:22;;;;;;;10.27;9.57;;;;;;;20.58;29.02;92623.31;4991442;28;20290;-78
2022/04/16 11:20:55;;;;;;;9.23;8.63;;;;;;;20.93;29.20;92650.78;4992346;28;20203;-78
2022/04/16 11:23:25;;;;;;;9.93;9.23;;;;;;;20.97;28.94;92653.53;4991351;28;20249;-78
2022/04/16 11:34:20;;;;;;;9.13;8.50;;;;;;;21.18;29.95;92646.13;4991911;28;20247;-78
2022/04/16 11:36:52;;;;;;;9.57;8.88;;;;;;;20.68;30.29;92634.22;4991716;28;20199;-78
2022/04/16 11:39:18;;;;;;;9.80;9.00;;;;;;;20.43;30.65;92637.31;4990871;28;20329;-77
2022/04/16 11:41:51;;;;;;;9.70;9.03;;;;;;;20.09;30.68;92598.09;4991661;28;20199;-78
2022/04/16 11:44:27;;;;;;;8.57;7.87;;;;;;;20.06;31.24;92620.72;4991314;28;20239;-79
2022/04/16 11:46:53;;;;;;;9.53;8.93;;;;;;;19.96;31.53;92645.06;4991595;28;20216;-79
2022/04/16 11:49:18;;;;;;;9.60;8.80;;;;;;;20.12;32.06;92632.66;4991526;28;20269;-78
2022/04/16 11:51:44;;;;;;;9.73;8.83;;;;;;;20.47;31.45;92622.25;4991358;28;20174;-77
2022/04/16 11:54:09;;;;;;;11.73;8.53;;;;;;;20.52;33.69;92619.38;4991536;28;21330;-78
2022/04/16 11:56:35;;;;;;;9.43;8.73;;;;;;;20.84;32.07;92605.03;4991332;28;20290;-72
2022/04/16 11:59:00;;;;;;;9.27;8.33;;;;;;;19.89;31.78;92607.75;4990961;28;20238;-75